Time;durP1;ratioP1;P1;durP2;ratioP2;P2;SDS_P1;SDS_P2;PMS_P1;PMS_P2;Temp;Humidity;BMP_temperature;BMP_pressure;BME280_temperature;BME280_humidity;BME280_pressure;Samples;Min_cycle;Max_cycle;Signal;HPM_P1;HPM_P2
2022/06/09 02:21:54;;;;;;;1.20;1.10;;;15.40;99.90;;;;;;5634059;23;20485;-61
2022/06/09 02:24:21;;;;;;;1.00;1.00;;;15.40;99.90;;;;;;5018064;28;20456;-61
2022/06/09 02:26:48;;;;;;;1.33;1.07;;;15.40;99.90;;;;;;5018255;28;20449;-61
2022/06/09 02:29:15;;;;;;;1.30;1.13;;;15.40;99.90;;;;;;5018111;28;20786;-62
2022/06/09 02:31:42;;;;;;;2.00;1.40;;;15.50;99.90;;;;;;5017821;28;20523;-61
2022/06/09 02:34:10;;;;;;;0.83;0.83;;;15.50;99.90;;;;;;5017905;28;20455;-62
2022/06/09 02:36:36;;;;;;;1.17;1.17;;;15.50;99.90;;;;;;5017625;28;20826;-61
2022/06/09 02:39:06;;;;;;;2.33;1.10;;;15.50;99.90;;;;;;5017500;28;20453;-61
2022/06/09 02:41:33;;;;;;;1.73;1.40;;;15.50;99.90;;;;;;5023398;28;20473;-61
2022/06/09 02:43:59;;;;;;;1.73;1.40;;;15.50;99.90;;;;;;5022854;28;20453;-61
2022/06/09 02:46:26;;;;;;;1.27;1.17;;;15.60;99.90;;;;;;5017773;28;20449;-61
2022/06/09 02:48:53;;;;;;;1.40;1.30;;;15.60;99.90;;;;;;5017852;28;20456;-60
2022/06/09 02:51:26;;;;;;;1.00;1.00;;;15.60;99.90;;;;;;5017459;28;20473;-61
2022/06/09 02:53:53;;;;;;;1.47;1.37;;;15.60;99.90;;;;;;5017541;28;20540;-60
2022/06/09 02:56:21;;;;;;;1.50;1.40;;;15.70;99.90;;;;;;5017374;28;20480;-60
2022/06/09 02:58:48;;;;;;;1.40;1.40;;;15.60;99.90;;;;;;5017477;28;20859;-61
2022/06/09 03:01:14;;;;;;;1.33;1.13;;;15.60;99.90;;;;;;5017282;28;20511;-61
2022/06/09 03:03:42;;;;;;;8.23;1.80;;;15.60;99.90;;;;;;5017363;28;20460;-60
2022/06/09 03:06:09;;;;;;;1.40;1.40;;;15.60;99.90;;;;;;5017220;28;20453;-61
2022/06/09 03:08:35;;;;;;;5.57;1.53;;;15.50;99.90;;;;;;5017354;28;20488;-61
2022/06/09 03:11:02;;;;;;;5.33;2.03;;;15.50;99.90;;;;;;5017091;28;20460;-61
2022/06/09 03:13:30;;;;;;;2.60;2.13;;;15.40;99.90;;;;;;5016772;28;20455;-61
2022/06/09 03:15:57;;;;;;;2.07;1.93;;;15.40;99.90;;;;;;5017720;28;20476;-61
2022/06/09 03:18:24;;;;;;;1.73;1.23;;;15.40;99.90;;;;;;5016989;28;20456;-61
2022/06/09 03:20:51;;;;;;;1.87;1.77;;;15.30;99.90;;;;;;5016795;28;20506;-61
2022/06/09 03:23:18;;;;;;;3.57;1.80;;;15.30;99.90;;;;;;5017013;28;20452;-61
2022/06/09 03:25:45;;;;;;;4.07;2.60;;;15.30;99.90;;;;;;5017223;28;20477;-61
2022/06/09 03:28:12;;;;;;;2.07;1.97;;;15.30;99.90;;;;;;5018632;28;20452;-61
2022/06/09 03:30:40;;;;;;;1.83;1.70;;;15.30;99.90;;;;;;5017709;28;20456;-61
2022/06/09 03:33:07;;;;;;;2.93;2.20;;;15.40;99.90;;;;;;5015961;28;20480;-61
2022/06/09 03:35:34;;;;;;;2.63;1.63;;;15.30;99.90;;;;;;5016440;28;21045;-61
2022/06/09 03:38:01;;;;;;;2.50;2.10;;;15.40;99.90;;;;;;5016697;28;20452;-61
2022/06/09 03:40:29;;;;;;;1.70;1.60;;;15.40;99.90;;;;;;5017262;28;20452;-61
2022/06/09 03:42:56;;;;;;;1.90;1.80;;;15.40;99.90;;;;;;5016600;28;20476;-61
2022/06/09 03:45:23;;;;;;;2.60;1.80;;;15.40;99.90;;;;;;5016442;28;20455;-61
2022/06/09 03:47:51;;;;;;;4.87;1.90;;;15.50;99.90;;;;;;5016149;28;20457;-62
2022/06/09 03:50:20;;;;;;;2.30;1.53;;;15.50;99.90;;;;;;5016443;28;20456;-61
2022/06/09 03:52:47;;;;;;;2.00;1.80;;;15.50;99.90;;;;;;5016336;28;20477;-61
2022/06/09 03:55:14;;;;;;;3.77;2.20;;;15.50;99.90;;;;;;5016291;28;20500;-62
2022/06/09 03:57:41;;;;;;;2.10;1.93;;;15.40;99.90;;;;;;5016265;28;20859;-61
2022/06/09 04:00:13;;;;;;;4.80;2.03;;;15.40;99.90;;;;;;5016239;28;20460;-62
2022/06/09 04:02:40;;;;;;;2.13;1.80;;;15.40;99.90;;;;;;5015699;28;20477;-61
2022/06/09 04:05:09;;;;;;;2.17;2.07;;;15.40;99.90;;;;;;5015884;28;20998;-61
2022/06/09 04:07:35;;;;;;;2.30;1.83;;;15.40;99.90;;;;;;5016168;28;20456;-61
2022/06/09 04:10:03;;;;;;;1.90;1.60;;;15.40;99.90;;;;;;5016031;28;20461;-61
2022/06/09 04:12:30;;;;;;;3.07;2.30;;;15.40;99.90;;;;;;5015940;28;20480;-61
2022/06/09 04:14:57;;;;;;;3.47;1.90;;;15.40;99.90;;;;;;5015972;28;20464;-61
2022/06/09 04:17:24;;;;;;;3.30;2.80;;;15.40;99.90;;;;;;5015645;28;20460;-61
2022/06/09 04:19:51;;;;;;;1.93;1.80;;;15.40;99.90;;;;;;5015580;28;20810;-61
2022/06/09 04:22:19;;;;;;;2.53;2.37;;;15.40;99.90;;;;;;5015518;28;20480;-61
2022/06/09 04:24:46;;;;;;;2.47;2.30;;;15.40;99.90;;;;;;5015782;28;20460;-61
2022/06/09 04:27:12;;;;;;;2.80;2.30;;;15.40;99.90;;;;;;5015847;28;20457;-61
2022/06/09 04:29:39;;;;;;;4.67;2.30;;;15.40;99.90;;;;;;5015878;28;20460;-61
2022/06/09 04:32:06;;;;;;;3.30;2.30;;;15.50;99.90;;;;;;5015863;28;20476;-61
2022/06/09 04:34:33;;;;;;;2.30;2.20;;;15.60;99.90;;;;;;5015722;28;20479;-61
2022/06/09 04:36:59;;;;;;;2.70;2.00;;;15.50;99.90;;;;;;5015441;28;20476;-61
2022/06/09 04:39:27;;;;;;;2.90;2.20;;;15.60;99.90;;;;;;5015589;28;20457;-61
2022/06/09 04:41:54;;;;;;;4.70;2.33;;;15.60;99.90;;;;;;5015368;28;20519;-61
2022/06/09 04:44:21;;;;;;;2.20;2.00;;;15.60;99.90;;;;;;5015032;28;21006;-61
2022/06/09 04:46:47;;;;;;;3.40;1.97;;;15.60;99.90;;;;;;5015282;28;20861;-61
2022/06/09 04:49:14;;;;;;;3.43;2.40;;;15.60;99.90;;;;;;5015407;28;20461;-61
2022/06/09 04:51:41;;;;;;;5.27;1.70;;;15.60;99.90;;;;;;5015069;28;20983;-61
2022/06/09 04:54:08;;;;;;;2.13;1.73;;;15.60;99.90;;;;;;5015480;28;20456;-61
2022/06/09 04:56:36;;;;;;;3.60;1.70;;;15.60;99.90;;;;;;5014764;28;20508;-61
2022/06/09 04:59:03;;;;;;;2.60;2.00;;;15.60;99.90;;;;;;5015210;28;20449;-62
2022/06/09 05:01:31;;;;;;;4.40;1.70;;;15.70;99.90;;;;;;5015066;28;20472;-62
2022/06/09 05:03:59;;;;;;;3.37;2.00;;;15.70;99.90;;;;;;5014733;28;20911;-62
2022/06/09 05:06:28;;;;;;;4.40;2.50;;;15.70;99.90;;;;;;5015002;28;20506;-62
2022/06/09 05:08:56;;;;;;;2.60;2.03;;;15.70;99.90;;;;;;5015005;28;20452;-62
2022/06/09 05:11:24;;;;;;;2.83;1.80;;;15.70;99.90;;;;;;5014970;28;20476;-62
2022/06/09 05:13:52;;;;;;;2.23;1.87;;;15.70;99.90;;;;;;5015326;28;20460;-62
2022/06/09 05:16:20;;;;;;;3.53;2.20;;;15.70;99.90;;;;;;5015097;28;20599;-62
2022/06/09 05:18:46;;;;;;;3.63;1.50;;;15.70;99.90;;;;;;5015177;28;20456;-62
2022/06/09 05:21:13;;;;;;;4.30;1.90;;;15.80;99.90;;;;;;5018121;28;20492;-62
2022/06/09 05:23:41;;;;;;;2.03;1.63;;;15.90;99.90;;;;;;5023364;28;20450;-62
2022/06/09 05:26:08;;;;;;;3.53;2.10;;;15.90;99.90;;;;;;5014894;28;20449;-62
2022/06/09 05:28:35;;;;;;;2.20;2.03;;;15.90;99.90;;;;;;5014679;28;20819;-62
2022/06/09 05:31:03;;;;;;;3.70;1.97;;;16.00;99.90;;;;;;5014362;28;20461;-62
2022/06/09 05:33:30;;;;;;;1.93;1.83;;;16.00;99.90;;;;;;5017712;28;20452;-62
2022/06/09 05:35:58;;;;;;;3.80;1.70;;;16.00;99.90;;;;;;5016138;28;20480;-62
2022/06/09 05:46:41;;;;;;;1.93;1.83;;;16.40;99.90;;;;;;5014453;28;20916;-62
2022/06/09 05:49:09;;;;;;;2.27;1.80;;;16.50;99.90;;;;;;5014285;28;20517;-62
2022/06/09 05:51:37;;;;;;;2.47;2.00;;;16.60;99.90;;;;;;5014824;28;20479;-62
2022/06/09 05:54:04;;;;;;;2.10;1.90;;;16.60;99.90;;;;;;5014704;28;20463;-62
2022/06/09 05:56:31;;;;;;;5.40;2.30;;;16.70;99.90;;;;;;5013710;28;20503;-62
2022/06/09 05:58:59;;;;;;;3.03;2.57;;;16.70;99.90;;;;;;5013825;28;20907;-62
2022/06/09 06:01:26;;;;;;;5.70;2.10;;;16.80;99.90;;;;;;5014082;28;20527;-61
2022/06/09 06:03:55;;;;;;;3.33;1.90;;;16.90;99.90;;;;;;5014085;28;20816;-62
2022/06/09 06:06:36;;;;;;;3.47;1.90;;;17.00;99.90;;;;;;5014086;28;20456;-62
2022/06/09 06:09:06;;;;;;;2.73;1.57;;;17.30;99.90;;;;;;5014046;28;20441;-63
2022/06/09 06:11:35;;;;;;;2.50;1.83;;;17.40;99.90;;;;;;5014669;28;20468;-62
2022/06/09 06:14:02;;;;;;;4.10;2.10;;;17.50;99.90;;;;;;5014301;28;20464;-62
2022/06/09 06:16:28;;;;;;;4.43;2.17;;;17.70;99.90;;;;;;5013674;28;20484;-62
2022/06/09 06:18:57;;;;;;;5.37;2.67;;;17.80;99.90;;;;;;5014048;28;20456;-62
2022/06/09 06:21:24;;;;;;;7.50;2.47;;;17.80;99.90;;;;;;5014286;28;20492;-62
2022/06/09 06:23:52;;;;;;;3.40;2.20;;;17.80;99.90;;;;;;5014053;28;20459;-62
2022/06/09 06:26:19;;;;;;;3.17;1.73;;;17.80;99.90;;;;;;5013602;28;20932;-62
2022/06/09 06:28:46;;;;;;;8.30;2.10;;;17.80;99.90;;;;;;5013860;28;20461;-62
2022/06/09 06:31:13;;;;;;;5.43;2.50;;;17.80;99.90;;;;;;5013540;28;21034;-62
2022/06/09 06:33:40;;;;;;;4.97;2.40;;;18.00;99.90;;;;;;5013760;28;20456;-62
2022/06/09 06:36:09;;;;;;;4.23;2.30;;;18.20;99.90;;;;;;5013680;28;20836;-63
2022/06/09 06:38:37;;;;;;;5.23;2.70;;;18.40;99.90;;;;;;5013557;28;20452;-62
2022/06/09 06:41:05;;;;;;;3.33;2.10;;;18.50;99.90;;;;;;5013513;28;20453;-62
2022/06/09 06:43:32;;;;;;;4.83;1.57;;;18.60;99.90;;;;;;5013990;28;20456;-62
2022/06/09 06:45:59;;;;;;;9.10;2.30;;;18.50;99.90;;;;;;5013697;28;20503;-62
2022/06/09 06:48:26;;;;;;;3.70;1.93;;;18.40;99.90;;;;;;5013835;28;20453;-62
2022/06/09 06:50:53;;;;;;;5.90;2.43;;;18.40;99.90;;;;;;5013522;28;20461;-62
2022/06/09 06:53:21;;;;;;;8.63;2.30;;;18.40;99.90;;;;;;5013559;28;20507;-62
2022/06/09 06:55:48;;;;;;;2.73;1.73;;;18.30;99.90;;;;;;5014380;28;20453;-63
2022/06/09 06:58:14;;;;;;;4.70;2.03;;;18.70;99.90;;;;;;5013167;28;20939;-62
2022/06/09 07:00:42;;;;;;;3.60;2.00;;;19.30;99.90;;;;;;5013412;28;20559;-62
2022/06/09 07:03:10;;;;;;;3.07;1.57;;;20.00;99.90;;;;;;5013393;28;20476;-63
2022/06/09 07:05:37;;;;;;;4.87;1.40;;;20.60;99.90;;;;;;5013552;28;20503;-62
2022/06/09 07:08:04;;;;;;;4.30;1.67;;;21.10;99.90;;;;;;5015773;28;20543;-62
2022/06/09 07:10:33;;;;;;;2.73;1.37;;;21.30;99.90;;;;;;5017084;28;20503;-62
2022/06/09 07:13:00;;;;;;;3.27;1.63;;;21.50;99.90;;;;;;5017022;28;20473;-62
2022/06/09 07:15:28;;;;;;;3.80;1.80;;;21.90;99.90;;;;;;5016957;28;20453;-63
2022/06/09 07:17:55;;;;;;;3.80;1.50;;;22.30;99.90;;;;;;5016835;28;20488;-61
2022/06/09 07:20:22;;;;;;;5.37;1.43;;;22.80;99.90;;;;;;5017023;28;20461;-62
2022/06/09 07:22:49;;;;;;;3.77;1.53;;;23.30;99.90;;;;;;5016657;28;20481;-62
2022/06/09 07:25:20;;;;;;;6.00;1.50;;;23.60;99.90;;;;;;5016567;28;20985;-62
2022/06/09 07:27:48;;;;;;;3.00;1.90;;;23.90;99.90;;;;;;5016929;28;20444;-63
2022/06/09 07:30:15;;;;;;;4.83;1.90;;;23.80;99.90;;;;;;5016828;28;20822;-62
2022/06/09 07:32:42;;;;;;;3.10;1.40;;;24.10;99.90;;;;;;5018729;28;20508;-62
2022/06/09 07:35:10;;;;;;;5.90;1.50;;;24.30;99.90;;;;;;5019920;28;20460;-64
2022/06/09 07:37:36;;;;;;;4.33;2.40;;;24.60;99.90;;;;;;5019446;28;20476;-64
2022/06/09 07:40:04;;;;;;;2.80;1.30;;;24.90;99.90;;;;;;5017206;28;20488;-63
2022/06/09 07:42:31;;;;;;;3.77;1.43;;;25.20;99.40;;;;;;5016229;28;20916;-64
2022/06/09 07:45:00;;;;;;;4.20;1.83;;;25.20;99.10;;;;;;5016832;28;20449;-63
2022/06/09 07:47:27;;;;;;;5.47;1.83;;;25.50;98.80;;;;;;5016569;28;20449;-64
2022/06/09 07:49:53;;;;;;;5.37;1.60;;;25.70;97.70;;;;;;5016605;28;20460;-64
2022/06/09 07:52:20;;;;;;;2.90;1.60;;;25.80;98.30;;;;;;5016613;28;20483;-63
2022/06/09 07:54:47;;;;;;;4.10;1.67;;;25.80;96.50;;;;;;5016458;28;20456;-63
2022/06/09 07:57:14;;;;;;;8.00;1.80;;;25.60;96.40;;;;;;5016566;28;20481;-64
2022/06/09 07:59:40;;;;;;;2.97;1.57;;;25.50;95.10;;;;;;5016382;28;20453;-64
2022/06/09 08:02:10;;;;;;;3.63;1.60;;;25.60;95.90;;;;;;5019220;28;20995;-64
2022/06/09 08:04:37;;;;;;;2.53;1.13;;;25.70;94.40;;;;;;5025171;28;20873;-63
2022/06/09 08:07:04;;;;;;;2.80;1.47;;;25.70;95.40;;;;;;5016311;28;20448;-63
2022/06/09 08:09:31;;;;;;;2.70;1.50;;;26.10;95.60;;;;;;5016145;28;20459;-63
2022/06/09 08:11:58;;;;;;;3.30;1.40;;;26.40;94.80;;;;;;5015949;28;20481;-64
2022/06/09 08:14:26;;;;;;;1.40;1.30;;;26.70;93.70;;;;;;5015925;28;20461;-64
2022/06/09 08:16:53;;;;;;;3.97;1.63;;;26.70;92.40;;;;;;5015956;28;20476;-63
2022/06/09 08:19:21;;;;;;;4.37;1.17;;;26.80;93.00;;;;;;5014833;28;20818;-63
2022/06/09 08:21:48;;;;;;;10.23;1.57;;;27.20;93.20;;;;;;5015503;28;20485;-63
2022/06/09 08:24:15;;;;;;;4.90;1.70;;;27.20;91.20;;;;;;5015590;28;20457;-64
2022/06/09 08:26:42;;;;;;;3.07;1.60;;;26.70;91.70;;;;;;5015338;28;20959;-64
2022/06/09 08:29:09;;;;;;;3.60;1.63;;;26.40;92.80;;;;;;5015350;28;20840;-63
2022/06/09 08:31:36;;;;;;;2.83;1.40;;;26.30;90.50;;;;;;5015792;28;20483;-63
2022/06/09 08:34:03;;;;;;;4.83;1.40;;;26.20;92.70;;;;;;5015754;28;20534;-63
2022/06/09 08:36:31;;;;;;;3.50;1.23;;;26.10;91.50;;;;;;5015562;28;20527;-63
2022/06/09 08:38:58;;;;;;;3.20;1.47;;;25.70;90.60;;;;;;5015429;28;20453;-63
2022/06/09 08:41:39;;;;;;;4.40;1.37;;;25.10;91.30;;;;;;5015570;28;20483;-64
2022/06/09 08:44:17;;;;;;;2.17;1.10;;;24.40;92.70;;;;;;5015459;28;20463;-64
2022/06/09 08:46:49;;;;;;;2.20;1.53;;;23.70;94.50;;;;;;5015920;28;20444;-63
2022/06/09 08:49:46;;;;;;;2.87;1.43;;;23.60;95.90;;;;;;5015351;28;20475;-64
2022/06/09 08:52:33;;;;;;;3.67;1.50;;;24.00;94.80;;;;;;5015259;28;20621;-63
2022/06/09 08:55:08;;;;;;;3.30;1.40;;;24.70;93.50;;;;;;5015163;28;20441;-63
2022/06/09 08:57:36;;;;;;;2.73;1.43;;;25.30;90.80;;;;;;5014874;28;20460;-63
2022/06/09 09:00:05;;;;;;;4.23;1.80;;;25.90;93.20;;;;;;5014887;28;20453;-64
2022/06/09 09:02:38;;;;;;;2.03;1.23;;;26.50;90.80;;;;;;5015104;28;20477;-64
2022/06/09 09:05:14;;;;;;;3.90;1.67;;;27.10;90.30;;;;;;5015148;28;20445;-64
2022/06/09 09:07:47;;;;;;;6.17;1.47;;;27.50;89.80;;;;;;5014714;28;20444;-64
2022/06/09 09:10:18;;;;;;;3.83;1.20;;;27.40;85.40;;;;;;5014806;28;20445;-64
2022/06/09 09:12:56;;;;;;;2.80;1.40;;;27.10;86.20;;;;;;5014751;28;20480;-64
2022/06/09 09:15:28;;;;;;;2.10;1.20;;;27.10;83.90;;;;;;5015483;28;20514;-64
2022/06/09 09:18:05;;;;;;;4.03;1.30;;;27.40;83.30;;;;;;5015432;28;20472;-64
2022/06/09 09:20:38;;;;;;;2.53;1.13;;;27.70;81.70;;;;;;5014829;28;20437;-64
2022/06/09 09:23:14;;;;;;;5.10;1.10;;;28.00;79.90;;;;;;5014247;28;20481;-64
2022/06/09 09:25:45;;;;;;;1.30;1.20;;;28.30;83.00;;;;;;5014829;28;20440;-64
2022/06/09 09:28:18;;;;;;;4.70;2.10;;;28.50;78.10;;;;;;5015594;28;20437;-65
2022/06/09 09:30:59;;;;;;;2.50;1.50;;;28.40;77.00;;;;;;5015507;28;20437;-64
2022/06/09 09:33:26;;;;;;;2.43;1.27;;;28.50;77.50;;;;;;5017761;28;20441;-64
2022/06/09 09:35:59;;;;;;;3.70;1.57;;;28.70;76.30;;;;;;5017369;28;20511;-64
2022/06/09 09:38:35;;;;;;;2.67;1.70;;;28.80;78.30;;;;;;5015640;28;20465;-65
2022/06/09 09:41:02;;;;;;;2.50;1.63;;;29.20;75.60;;;;;;5013941;28;20437;-64
2022/06/09 09:43:37;;;;;;;3.20;1.23;;;29.60;74.80;;;;;;5014121;28;20983;-64
2022/06/09 09:46:04;;;;;;;1.77;1.00;;;29.80;75.40;;;;;;5014580;28;20441;-64
2022/06/09 09:48:37;;;;;;;2.60;1.43;;;29.90;74.30;;;;;;5014282;28;20936;-64
2022/06/09 09:51:10;;;;;;;2.50;2.30;;;30.10;69.10;;;;;;5014216;28;20536;-65
2022/06/09 09:53:40;;;;;;;2.60;1.70;;;30.40;72.00;;;;;;5014305;28;20437;-64
2022/06/09 09:56:30;;;;;;;3.00;1.40;;;30.10;69.70;;;;;;5014527;28;20496;-64
2022/06/09 09:58:59;;;;;;;4.90;1.47;;;30.10;71.90;;;;;;5014501;28;20433;-64
2022/06/09 10:01:29;;;;;;;1.43;0.97;;;30.30;70.10;;;;;;5014693;28;20472;-64
2022/06/09 10:09:35;;;;;;;1.37;0.93;;;30.40;72.70;;;;;;5014020;28;20412;-64
2022/06/09 10:12:08;;;;;;;2.20;1.20;;;30.10;64.10;;;;;;5013944;28;20475;-64
2022/06/09 10:14:46;;;;;;;3.30;1.30;;;29.40;65.40;;;;;;5013954;28;20433;-63
2022/06/09 10:17:28;;;;;;;2.50;1.43;;;29.10;69.90;;;;;;5014470;28;20689;-64
2022/06/09 10:20:06;;;;;;;2.67;1.37;;;29.00;68.50;;;;;;5014117;28;20448;-64
2022/06/09 10:22:35;;;;;;;1.33;0.90;;;29.50;68.50;;;;;;5013899;28;20480;-63
2022/06/09 10:25:14;;;;;;;3.53;1.40;;;29.90;68.60;;;;;;5013734;28;20460;-63
2022/06/09 10:27:44;;;;;;;1.63;1.13;;;30.30;66.30;;;;;;5013493;28;20433;-62
2022/06/09 10:30:16;;;;;;;1.77;0.90;;;30.10;63.70;;;;;;5013817;28;20464;-62
2022/06/09 10:32:48;;;;;;;4.13;1.63;;;29.20;65.60;;;;;;5013843;28;20485;-62
2022/06/09 10:35:26;;;;;;;2.90;1.30;;;28.80;67.20;;;;;;5013793;28;20904;-62
2022/06/09 10:37:56;;;;;;;3.83;1.40;;;28.80;68.60;;;;;;5013690;28;20460;-62
2022/06/09 10:40:34;;;;;;;3.00;1.30;;;29.00;67.70;;;;;;5013904;28;20784;-64
2022/06/09 10:43:06;;;;;;;1.97;1.37;;;29.30;67.60;;;;;;5016207;28;20479;-63
2022/06/09 10:45:41;;;;;;;2.23;1.13;;;29.40;67.30;;;;;;5017558;28;20437;-63
2022/06/09 10:56:54;;;;;;;2.23;1.33;;;27.10;67.60;;;;;;5017761;28;20555;-62
2022/06/09 10:59:27;;;;;;;2.30;1.20;;;26.20;69.00;;;;;;5017436;28;20916;-62
2022/06/09 11:01:54;;;;;;;4.83;1.80;;;25.60;69.50;;;;;;5017648;28;20468;-63
2022/06/09 11:04:21;;;;;;;2.10;1.47;;;25.00;77.00;;;;;;5017652;28;20448;-64
2022/06/09 11:07:10;;;;;;;2.50;1.40;;;25.00;81.10;;;;;;5017358;28;20452;-64
2022/06/09 11:09:48;;;;;;;2.70;1.53;;;25.20;81.30;;;;;;5017491;28;20495;-64
2022/06/09 11:12:26;;;;;;;4.53;1.50;;;25.40;78.80;;;;;;5017384;28;20898;-63
2022/06/09 11:15:03;;;;;;;5.37;1.60;;;25.20;79.50;;;;;;5017368;28;20432;-63
2022/06/09 11:17:57;;;;;;;1.90;1.23;;;24.70;83.80;;;;;;5017239;28;21029;-63
2022/06/09 11:20:34;;;;;;;8.20;1.80;;;24.60;85.10;;;;;;5015799;28;20459;-64
2022/06/09 11:23:12;;;;;;;5.30;1.57;;;24.50;86.40;;;;;;5016733;28;20995;-64
2022/06/09 11:25:50;;;;;;;2.00;1.87;;;24.30;86.00;;;;;;5016990;28;21027;-64
2022/06/09 11:28:29;;;;;;;3.80;1.70;;;24.40;89.90;;;;;;5016865;28;20440;-64
2022/06/09 11:31:14;;;;;;;4.97;1.43;;;24.90;86.20;;;;;;5018081;28;20930;-64
2022/06/09 11:33:54;;;;;;;3.43;1.30;;;24.90;83.00;;;;;;5019884;28;20436;-63
2022/06/09 11:36:28;;;;;;;3.30;1.80;;;24.70;83.70;;;;;;5016876;28;20447;-64
2022/06/09 11:39:13;;;;;;;3.63;1.50;;;24.60;85.20;;;;;;5017262;28;20962;-64
2022/06/09 11:41:45;;;;;;;3.13;1.70;;;24.60;90.60;;;;;;5021671;28;20504;-63
2022/06/09 11:44:22;;;;;;;5.63;1.33;;;24.90;90.20;;;;;;5025529;28;20438;-65
2022/06/09 11:46:51;;;;;;;4.40;1.90;;;25.10;88.60;;;;;;5026909;28;20433;-64
2022/06/09 11:49:26;;;;;;;4.77;1.90;;;25.30;89.60;;;;;;5021017;28;20448;-62
2022/06/09 11:51:54;;;;;;;2.47;1.30;;;25.40;87.80;;;;;;5017041;28;20937;-64
2022/06/09 11:54:44;;;;;;;2.60;1.20;;;25.20;87.30;;;;;;5016050;28;20452;-64
2022/06/09 11:57:40;;;;;;;1.83;1.43;;;25.20;85.40;;;;;;5016837;28;20441;-64
2022/06/09 12:00:35;;;;;;;1.67;1.30;;;25.40;86.40;;;;;;5016010;28;20940;-64
2022/06/09 12:03:16;;;;;;;3.20;1.93;;;25.40;83.30;;;;;;5016154;28;20472;-65
2022/06/09 12:05:50;;;;;;;4.20;1.60;;;25.50;84.20;;;;;;5015828;28;20797;-64
2022/06/09 12:08:32;;;;;;;3.40;1.90;;;25.40;83.00;;;;;;5016480;28;20491;-65
2022/06/09 12:11:14;;;;;;;2.40;1.63;;;25.40;84.80;;;;;;5015609;28;20916;-65
2022/06/09 12:14:01;;;;;;;1.80;1.20;;;25.30;84.50;;;;;;5016095;28;20443;-65
2022/06/09 12:16:34;;;;;;;1.57;1.27;;;25.30;82.20;;;;;;5015977;28;20441;-65
2022/06/09 12:19:21;;;;;;;2.53;1.03;;;25.50;79.20;;;;;;5015878;28;20516;-65
2022/06/09 12:21:51;;;;;;;4.13;1.17;;;25.50;79.50;;;;;;5016399;28;20823;-64
2022/06/09 12:24:25;;;;;;;2.90;1.40;;;25.70;83.00;;;;;;5016441;28;20457;-64
2022/06/09 12:26:55;;;;;;;2.50;1.53;;;25.80;77.90;;;;;;5015914;28;20445;-64
2022/06/09 12:29:45;;;;;;;10.33;1.67;;;25.90;75.50;;;;;;5016006;28;20440;-64
2022/06/09 12:32:43;;;;;;;2.53;1.13;;;26.10;79.90;;;;;;5015668;28;20477;-64
2022/06/09 12:35:24;;;;;;;1.70;1.40;;;26.20;75.10;;;;;;5015958;28;20468;-64
2022/06/09 12:37:57;;;;;;;3.10;1.30;;;26.00;77.30;;;;;;5015728;28;20468;-65
2022/06/09 12:40:27;;;;;;;2.20;1.07;;;25.70;72.70;;;;;;5016360;28;20491;-65
2022/06/09 12:42:58;;;;;;;1.80;1.33;;;25.70;76.10;;;;;;5015818;28;20476;-65
2022/06/09 12:45:27;;;;;;;2.63;1.30;;;25.60;76.30;;;;;;5015559;28;20917;-64
2022/06/09 12:47:59;;;;;;;1.10;1.00;;;25.50;76.60;;;;;;5015790;28;20455;-63
2022/06/09 12:50:38;;;;;;;3.67;1.80;;;25.10;76.90;;;;;;5015672;28;20448;-64
2022/06/09 12:53:07;;;;;;;3.70;1.27;;;25.10;77.50;;;;;;5015635;28;20477;-64
2022/06/09 12:55:37;;;;;;;2.50;0.87;;;25.20;78.60;;;;;;5015424;28;20453;-64
2022/06/09 12:58:15;;;;;;;4.30;1.30;;;25.10;72.60;;;;;;5015344;28;20964;-64
2022/06/09 13:00:46;;;;;;;1.83;0.97;;;25.00;74.10;;;;;;5016131;28;20441;-65
2022/06/09 13:03:23;;;;;;;6.60;1.53;;;25.00;77.70;;;;;;5015371;28;20477;-64
2022/06/09 13:05:50;;;;;;;6.60;1.53;;;25.00;76.70;;;;;;5015270;28;20449;-65
2022/06/09 13:08:23;;;;;;;3.40;1.70;;;24.90;77.30;;;;;;5015360;28;20453;-65
2022/06/09 13:10:56;;;;;;;2.10;1.60;;;24.80;78.60;;;;;;5015049;28;20437;-64
2022/06/09 13:13:26;;;;;;;3.07;1.30;;;24.80;75.70;;;;;;5015746;28;20441;-64
2022/06/09 13:16:00;;;;;;;3.67;2.17;;;24.90;79.30;;;;;;5015896;28;20445;-64
2022/06/09 13:18:30;;;;;;;1.47;1.10;;;25.20;80.60;;;;;;5016491;28;20543;-65
2022/06/09 13:21:10;;;;;;;2.47;1.40;;;25.10;75.50;;;;;;5015849;28;20441;-64
2022/06/09 13:23:37;;;;;;;2.97;1.90;;;25.00;77.50;;;;;;5015181;28;20437;-64
2022/06/09 13:26:06;;;;;;;3.30;1.90;;;25.10;75.30;;;;;;5015037;28;20488;-65
2022/06/09 13:28:38;;;;;;;3.40;1.60;;;25.20;74.70;;;;;;5015051;28;20449;-65
2022/06/09 13:31:22;;;;;;;2.30;1.60;;;25.40;75.50;;;;;;5014784;28;21055;-65
2022/06/09 13:33:55;;;;;;;5.40;2.53;;;25.50;79.90;;;;;;5014827;28;20441;-64
2022/06/09 13:36:32;;;;;;;3.77;1.93;;;25.70;74.60;;;;;;5014787;28;20805;-65
2022/06/09 13:39:15;;;;;;;3.27;2.37;;;25.70;74.00;;;;;;5014830;28;20465;-65
2022/06/09 13:41:41;;;;;;;3.67;1.90;;;25.30;72.50;;;;;;5014511;28;20464;-64
2022/06/09 13:44:18;;;;;;;7.20;2.30;;;24.90;76.40;;;;;;5015187;28;20449;-65
2022/06/09 13:46:58;;;;;;;4.60;2.63;;;24.80;76.80;;;;;;5014799;28;20444;-65
2022/06/09 13:49:30;;;;;;;3.07;2.17;;;25.10;77.70;;;;;;5015404;28;20922;-65
2022/06/09 13:51:59;;;;;;;3.20;1.90;;;25.20;72.70;;;;;;5015028;28;20472;-65
2022/06/09 13:54:29;;;;;;;2.43;1.93;;;25.20;75.10;;;;;;5015204;28;20806;-66
2022/06/09 13:56:56;;;;;;;5.97;2.30;;;25.30;75.80;;;;;;5014989;28;20506;-65
2022/06/09 13:59:23;;;;;;;3.77;2.20;;;25.40;77.10;;;;;;5014745;28;20523;-66
2022/06/09 14:01:52;;;;;;;2.97;2.20;;;25.60;77.00;;;;;;5014773;28;20476;-65
2022/06/09 14:04:22;;;;;;;4.57;2.30;;;25.60;74.40;;;;;;5014579;28;20460;-66
2022/06/09 14:06:50;;;;;;;4.93;2.43;;;25.20;75.00;;;;;;5014736;28;20552;-65
2022/06/09 14:09:19;;;;;;;2.67;2.20;;;24.90;72.90;;;;;;5014158;28;20956;-66
2022/06/09 14:11:46;;;;;;;3.63;2.27;;;24.70;75.00;;;;;;5014470;28;20535;-64
2022/06/09 14:14:13;;;;;;;3.10;2.00;;;24.70;73.40;;;;;;5014332;28;20824;-65
2022/06/09 14:16:45;;;;;;;4.30;1.80;;;24.70;74.90;;;;;;5014095;28;20453;-65
2022/06/09 14:19:14;;;;;;;4.43;2.60;;;24.50;73.90;;;;;;5014173;28;20531;-64
2022/06/09 14:21:40;;;;;;;2.77;1.90;;;24.20;72.30;;;;;;5013972;28;20910;-64
2022/06/09 14:24:15;;;;;;;2.40;1.80;;;23.90;74.80;;;;;;5014316;28;20452;-64
2022/06/09 14:26:42;;;;;;;4.27;2.17;;;23.70;76.90;;;;;;5014371;28;20437;-64
2022/06/09 14:29:13;;;;;;;4.20;2.30;;;23.60;77.60;;;;;;5013680;28;20449;-65
2022/06/09 14:31:40;;;;;;;2.30;2.07;;;23.40;78.70;;;;;;5014037;28;20477;-65
2022/06/09 14:34:06;;;;;;;4.70;1.80;;;23.40;78.80;;;;;;5013917;28;20460;-65
2022/06/09 14:36:34;;;;;;;3.73;2.40;;;23.50;81.30;;;;;;5014350;28;20528;-64
2022/06/09 14:39:03;;;;;;;3.70;1.80;;;23.70;81.60;;;;;;5013427;28;20488;-65
2022/06/09 14:41:31;;;;;;;6.33;2.87;;;23.90;81.20;;;;;;5013935;28;20508;-65
2022/06/09 14:43:58;;;;;;;3.73;1.90;;;23.90;81.20;;;;;;5013971;28;20463;-65
2022/06/09 14:46:27;;;;;;;4.00;1.83;;;24.10;80.20;;;;;;5013895;28;20459;-64
2022/06/09 14:48:54;;;;;;;4.43;1.67;;;24.10;82.20;;;;;;5013957;28;20461;-65
2022/06/09 14:51:21;;;;;;;5.03;2.07;;;24.30;80.00;;;;;;5013767;28;20530;-64
2022/06/09 14:53:48;;;;;;;2.83;1.43;;;24.50;79.50;;;;;;5014152;28;20457;-64
2022/06/09 14:56:17;;;;;;;3.67;1.60;;;24.60;78.10;;;;;;5013930;28;20441;-65
2022/06/09 14:58:45;;;;;;;2.00;1.70;;;24.80;81.30;;;;;;5014170;28;20484;-64
2022/06/09 15:01:14;;;;;;;2.60;1.97;;;25.00;78.00;;;;;;5014206;28;20453;-64
2022/06/09 15:03:41;;;;;;;4.23;1.50;;;24.90;78.90;;;;;;5013549;28;20453;-64
2022/06/09 15:06:08;;;;;;;11.40;1.57;;;24.80;78.20;;;;;;5013449;28;20452;-65
2022/06/09 15:08:34;;;;;;;1.80;1.10;;;24.60;77.40;;;;;;5013306;28;20848;-64
2022/06/09 15:11:01;;;;;;;1.80;1.27;;;24.60;79.20;;;;;;5013259;28;20452;-64
2022/06/09 15:13:28;;;;;;;8.80;1.80;;;24.60;79.00;;;;;;5013078;28;20959;-64
2022/06/09 15:16:01;;;;;;;3.40;2.10;;;24.60;79.60;;;;;;5013248;28;20453;-64
2022/06/09 15:18:29;;;;;;;5.43;1.80;;;24.40;78.50;;;;;;5013247;28;20901;-64
2022/06/09 15:20:56;;;;;;;3.57;1.47;;;24.20;78.40;;;;;;5013300;28;20461;-64
2022/06/09 15:23:23;;;;;;;3.50;2.03;;;23.90;77.90;;;;;;5013812;28;20456;-66
2022/06/09 15:25:50;;;;;;;3.50;1.47;;;23.90;80.40;;;;;;5013587;28;20454;-64
2022/06/09 15:28:19;;;;;;;2.43;1.57;;;23.70;81.30;;;;;;5013574;28;20445;-64
2022/06/09 15:30:47;;;;;;;4.73;1.60;;;23.60;81.50;;;;;;5017050;28;20456;-64
2022/06/09 15:33:16;;;;;;;4.10;2.20;;;23.50;82.70;;;;;;5017069;28;20495;-65
2022/06/09 15:35:43;;;;;;;5.70;2.10;;;23.30;83.90;;;;;;5017012;28;20480;-64
2022/06/09 15:38:11;;;;;;;3.30;2.47;;;23.10;83.60;;;;;;5016835;28;20453;-64
2022/06/09 15:40:40;;;;;;;2.37;2.07;;;22.90;84.80;;;;;;5017051;28;20448;-65
2022/06/09 15:43:08;;;;;;;2.10;1.70;;;22.70;86.90;;;;;;5016842;28;20472;-66
2022/06/09 15:45:39;;;;;;;3.43;1.87;;;22.60;89.80;;;;;;5016850;28;20456;-65